Time;durP1;ratioP1;P1;durP2;ratioP2;P2;SDS_P1;SDS_P2;PMS_P1;PMS_P2;Temp;Humidity;BMP_temperature;BMP_pressure;BME280_temperature;BME280_humidity;BME280_pressure;Samples;Min_cycle;Max_cycle;Signal;HPM_P1;HPM_P2
2023/08/09 00:00:31;;;;;;;1.95;1.65;;;;;;;14.98;63.83;100024.16;5031320;28;20662;-69
2023/08/09 00:03:00;;;;;;;2.53;1.83;;;;;;;15.07;63.98;100029.97;5029061;28;20195;-67
2023/08/09 00:05:29;;;;;;;2.33;1.70;;;;;;;15.12;63.52;100035.84;5030982;28;20250;-63
2023/08/09 00:07:57;;;;;;;2.72;1.83;;;;;;;15.13;63.31;100032.34;5024007;28;20306;-65
2023/08/09 00:10:26;;;;;;;2.17;1.60;;;;;;;15.15;63.69;100030.56;5026881;28;20735;-65
2023/08/09 00:12:54;;;;;;;2.20;1.70;;;;;;;15.16;63.74;100035.72;5026515;28;20206;-64
2023/08/09 00:15:22;;;;;;;3.25;1.98;;;;;;;15.14;63.60;100036.69;5029182;28;20191;-67
2023/08/09 00:17:51;;;;;;;3.20;1.90;;;;;;;15.13;63.57;100038.44;5030436;28;20655;-65
2023/08/09 00:20:20;;;;;;;3.33;1.90;;;;;;;15.14;63.66;100034.94;5024138;28;20199;-66
2023/08/09 00:22:50;;;;;;;3.13;2.00;;;;;;;15.17;64.15;100044.34;5026629;28;20234;-66
2023/08/09 00:25:18;;;;;;;4.00;2.00;;;;;;;15.17;64.08;100049.53;5027420;28;20242;-65
2023/08/09 00:27:46;;;;;;;1.60;1.48;;;;;;;15.17;64.05;100041.75;5027233;28;20234;-66
2023/08/09 00:30:15;;;;;;;2.72;1.85;;;;;;;15.16;64.18;100043.50;5020079;28;20293;-65
2023/08/09 00:32:43;;;;;;;2.17;1.90;;;;;;;15.15;64.34;100038.38;5026017;28;20226;-66
2023/08/09 00:35:12;;;;;;;1.58;1.48;;;;;;;15.13;64.89;100037.56;5029166;28;20199;-65
2023/08/09 00:37:40;;;;;;;3.78;1.88;;;;;;;15.09;64.49;100035.94;5030181;28;20203;-66
2023/08/09 00:40:11;;;;;;;2.67;2.00;;;;;;;15.05;65.03;100031.75;5027270;28;20224;-64
2023/08/09 00:42:41;;;;;;;2.60;1.80;;;;;;;15.06;64.70;100036.91;5030067;28;20210;-64
2023/08/09 00:45:10;;;;;;;1.98;1.50;;;;;;;15.06;64.69;100038.63;5029487;28;20603;-67
2023/08/09 00:47:38;;;;;;;2.22;1.90;;;;;;;15.02;65.38;100042.22;5017662;28;20646;-66
2023/08/09 00:50:07;;;;;;;2.38;1.80;;;;;;;15.02;65.12;100050.00;5028924;28;20210;-64
2023/08/09 00:52:37;;;;;;;2.22;1.50;;;;;;;15.03;65.22;100051.72;5027509;28;20203;-65
2023/08/09 00:55:06;;;;;;;1.92;1.65;;;;;;;14.98;64.86;100037.13;5024213;28;20206;-67
2023/08/09 00:57:36;;;;;;;1.50;1.40;;;;;;;14.95;65.12;100050.19;5023855;28;20206;-65
2023/08/09 01:00:05;;;;;;;2.22;1.40;;;;;;;14.89;65.32;100047.78;5029330;28;20333;-65
2023/08/09 01:02:33;;;;;;;2.63;1.83;;;;;;;14.87;65.34;100051.28;5024216;28;20209;-64
2023/08/09 01:05:04;;;;;;;2.67;1.48;;;;;;;14.87;65.31;100052.16;5028397;28;20298;-66
2023/08/09 01:07:41;;;;;;;2.45;1.83;;;;;;;14.87;65.66;100049.53;5028905;28;20225;-65
2023/08/09 01:10:15;;;;;;;2.30;1.83;;;;;;;14.88;65.38;100058.22;5028171;28;20730;-63
2023/08/09 01:12:50;;;;;;;2.05;1.83;;;;;;;14.86;65.17;100055.63;5022479;28;20221;-65
2023/08/09 01:15:20;;;;;;;3.08;1.77;;;;;;;14.84;65.66;100047.06;5022377;28;20206;-64
2023/08/09 01:17:49;;;;;;;3.53;2.00;;;;;;;14.85;65.43;100047.91;5029011;28;20237;-65
2023/08/09 01:20:19;;;;;;;3.40;1.80;;;;;;;14.84;65.67;100049.66;5028576;28;20297;-65
2023/08/09 01:22:56;;;;;;;3.00;1.57;;;;;;;14.84;66.32;100062.63;5027601;28;20276;-66
2023/08/09 01:25:25;;;;;;;2.83;2.10;;;;;;;14.86;66.40;100055.63;5025871;28;20277;-65
2023/08/09 01:27:54;;;;;;;2.75;1.75;;;;;;;14.88;66.03;100058.22;5019687;28;20700;-66
2023/08/09 01:30:22;;;;;;;1.75;1.60;;;;;;;14.88;66.38;100051.28;5029542;28;20300;-65
2023/08/09 01:32:52;;;;;;;1.65;1.55;;;;;;;14.88;66.66;100051.28;5026183;28;20218;-64
2023/08/09 01:35:20;;;;;;;1.98;1.77;;;;;;;14.86;66.99;100040.06;5020427;28;20206;-65
2023/08/09 01:37:52;;;;;;;2.55;1.73;;;;;;;14.87;67.00;100041.75;5025905;28;20225;-66
2023/08/09 01:40:21;;;;;;;1.65;1.55;;;;;;;14.84;66.53;100031.50;5028888;28;20672;-67
2023/08/09 01:42:52;;;;;;;4.07;2.20;;;;;;;14.79;67.33;100028.19;5027496;28;20221;-66
2023/08/09 01:45:21;;;;;;;2.92;1.63;;;;;;;14.79;67.46;100038.56;5027234;28;20669;-64
2023/08/09 01:47:50;;;;;;;4.68;2.00;;;;;;;14.82;67.53;100037.63;5029250;28;20230;-68
2023/08/09 01:50:19;;;;;;;3.00;1.80;;;;;;;14.86;67.20;100039.22;5026454;28;20207;-66
2023/08/09 01:52:48;;;;;;;2.33;1.70;;;;;;;14.88;67.52;100038.31;5026798;28;20654;-65
2023/08/09 01:55:19;;;;;;;2.83;2.10;;;;;;;14.87;67.51;100046.94;5026264;28;20257;-69
2023/08/09 01:57:49;;;;;;;3.40;1.73;;;;;;;14.87;67.50;100044.34;5028845;28;20731;-66
2023/08/09 02:00:20;;;;;;;2.60;1.98;;;;;;;14.84;68.25;100044.47;5028378;28;20202;-67
2023/08/09 02:02:48;;;;;;;3.15;2.00;;;;;;;14.86;67.86;100052.19;5029930;28;20688;-63
2023/08/09 02:05:17;;;;;;;5.15;1.98;;;;;;;14.85;68.12;100055.69;5029923;28;20210;-65
2023/08/09 02:07:45;;;;;;;1.83;1.73;;;;;;;14.89;68.09;100059.91;5030524;28;20215;-64
2023/08/09 02:10:13;;;;;;;2.00;1.52;;;;;;;14.90;68.01;100056.41;5032032;28;20294;-64
2023/08/09 02:12:46;;;;;;;3.27;2.20;;;;;;;14.91;67.96;100053.78;5030687;28;20202;-66
2023/08/09 02:15:16;;;;;;;2.85;2.10;;;;;;;14.91;68.21;100061.56;5032516;28;20202;-65
2023/08/09 02:17:46;;;;;;;3.83;2.00;;;;;;;14.91;68.07;100064.16;5030692;28;20230;-64
2023/08/09 02:20:14;;;;;;;2.92;1.90;;;;;;;14.91;68.13;100071.06;5032073;28;20218;-66
2023/08/09 02:22:43;;;;;;;2.20;2.00;;;;;;;14.89;68.05;100065.09;5030458;28;20253;-66
2023/08/09 02:25:12;;;;;;;2.45;1.88;;;;;;;14.87;68.50;100087.63;5030716;28;20203;-66
2023/08/09 02:27:41;;;;;;;2.00;1.80;;;;;;;14.83;68.56;100075.63;5028822;28;20215;-64
2023/08/09 02:30:11;;;;;;;2.08;1.90;;;;;;;14.81;68.78;100078.28;5030493;28;20297;-66
2023/08/09 02:32:39;;;;;;;1.67;1.58;;;;;;;14.78;68.77;100072.31;5029723;28;20615;-71
2023/08/09 02:35:10;;;;;;;4.37;2.27;;;;;;;14.77;68.98;100066.28;5030244;28;20658;-66
2023/08/09 02:37:38;;;;;;;1.70;1.60;;;;;;;14.75;68.76;100065.47;5033014;28;20625;-64
2023/08/09 02:40:09;;;;;;;3.08;1.83;;;;;;;14.74;69.05;100066.38;5031520;28;20219;-70
2023/08/09 02:42:37;;;;;;;2.17;1.83;;;;;;;14.70;69.46;100067.38;5030120;28;20207;-67
2023/08/09 02:45:06;;;;;;;1.73;1.52;;;;;;;14.69;69.42;100063.03;5026839;28;20666;-64
2023/08/09 02:47:36;;;;;;;1.80;1.57;;;;;;;14.68;69.96;100069.97;5030620;28;20563;-65
2023/08/09 02:50:07;;;;;;;2.55;1.50;;;;;;;14.70;69.81;100067.38;5032474;28;20203;-65
2023/08/09 02:52:36;;;;;;;1.77;1.67;;;;;;;14.70;69.93;100064.75;5029963;28;20202;-66
2023/08/09 02:55:06;;;;;;;3.83;1.50;;;;;;;14.68;70.03;100061.34;5025790;28;20221;-66
2023/08/09 02:57:35;;;;;;;1.70;1.43;;;;;;;14.67;69.78;100059.66;5031298;28;20198;-64
2023/08/09 03:00:04;;;;;;;2.45;1.88;;;;;;;14.65;69.74;100066.63;5029064;28;20214;-65
2023/08/09 03:02:32;;;;;;;2.37;1.90;;;;;;;14.61;70.01;100068.44;5029095;28;20688;-65
2023/08/09 03:05:01;;;;;;;2.20;2.00;;;;;;;14.61;70.48;100070.19;5030505;28;20587;-65
2023/08/09 03:07:29;;;;;;;1.88;1.70;;;;;;;14.60;69.98;100060.72;5029541;28;20578;-64
2023/08/09 03:09:58;;;;;;;4.25;2.25;;;;;;;14.60;70.38;100069.34;5030702;28;20211;-64
2023/08/09 03:12:27;;;;;;;2.33;2.00;;;;;;;14.59;70.28;100072.00;5028468;28;20207;-64
2023/08/09 03:14:54;;;;;;;4.20;2.25;;;;;;;14.57;70.36;100079.81;5027720;28;20253;-67
2023/08/09 03:17:23;;;;;;;2.55;1.80;;;;;;;14.55;70.42;100081.59;5025618;28;20695;-66
2023/08/09 03:19:51;;;;;;;3.72;1.80;;;;;;;14.53;70.75;100080.78;5030471;28;20551;-67
2023/08/09 03:22:19;;;;;;;2.00;1.80;;;;;;;14.54;70.42;100086.81;5030025;28;20241;-69
2023/08/09 03:24:47;;;;;;;1.77;1.60;;;;;;;14.49;70.56;100082.59;5031065;28;20210;-67
2023/08/09 03:27:16;;;;;;;4.80;1.65;;;;;;;14.47;71.27;100084.38;5029697;28;20252;-66
2023/08/09 03:29:44;;;;;;;2.03;1.63;;;;;;;14.47;70.79;100086.97;5027148;28;20265;-67
2023/08/09 03:32:12;;;;;;;2.85;1.52;;;;;;;14.47;70.94;100092.16;5028744;28;20203;-65
2023/08/09 03:34:40;;;;;;;1.90;1.70;;;;;;;14.46;71.29;100097.34;5022397;28;20662;-64
2023/08/09 03:37:08;;;;;;;2.73;1.73;;;;;;;14.39;71.28;100094.06;5029633;28;20566;-65
2023/08/09 03:39:36;;;;;;;2.45;1.80;;;;;;;14.36;71.79;100106.25;5029556;28;20213;-66
2023/08/09 03:42:05;;;;;;;2.37;1.97;;;;;;;14.36;71.58;100099.38;5030217;28;20673;-68
2023/08/09 03:44:35;;;;;;;2.10;1.90;;;;;;;14.37;71.92;100106.25;5032147;28;20202;-68
2023/08/09 03:47:02;;;;;;;1.65;1.45;;;;;;;14.36;71.80;100107.13;5028953;28;20198;-66
2023/08/09 03:49:31;;;;;;;2.20;1.60;;;;;;;14.35;71.85;100108.00;5028568;28;20221;-65
2023/08/09 03:51:59;;;;;;;6.90;2.03;;;;;;;14.35;72.14;100105.41;5028448;28;20238;-64
2023/08/09 03:54:28;;;;;;;4.40;2.25;;;;;;;14.34;72.02;100102.88;5030402;28;20214;-66
2023/08/09 03:56:56;;;;;;;1.95;1.50;;;;;;;14.31;72.07;100105.53;5027251;28;20604;-65
2023/08/09 03:59:24;;;;;;;2.80;1.57;;;;;;;14.32;71.89;100104.63;5029439;28;20203;-65
2023/08/09 04:01:53;;;;;;;1.97;1.77;;;;;;;14.33;71.70;100101.19;5025583;28;20203;-65
2023/08/09 04:04:22;;;;;;;2.17;1.80;;;;;;;14.33;71.99;100102.03;5026645;28;20714;-65
2023/08/09 04:06:50;;;;;;;1.70;1.60;;;;;;;14.35;72.33;100097.63;5029968;28;20226;-63
2023/08/09 04:09:18;;;;;;;3.67;1.80;;;;;;;14.40;71.80;100097.53;5030352;28;20215;-66
2023/08/09 04:11:46;;;;;;;3.38;2.10;;;;;;;14.49;71.92;100097.28;5026602;28;20294;-66
2023/08/09 04:14:14;;;;;;;2.80;2.00;;;;;;;14.55;71.48;100101.50;5030361;28;20700;-66
2023/08/09 04:16:42;;;;;;;2.57;1.70;;;;;;;14.64;71.39;100111.59;5029476;28;20670;-66
2023/08/09 04:19:11;;;;;;;2.20;1.90;;;;;;;14.72;71.06;100120.03;5026000;28;20210;-66
2023/08/09 04:21:39;;;;;;;2.83;1.80;;;;;;;14.77;70.59;100117.31;5029291;28;20238;-64
2023/08/09 04:24:09;;;;;;;2.03;1.70;;;;;;;14.76;70.57;100113.00;5030364;28;20209;-65
2023/08/09 04:26:37;;;;;;;2.00;1.90;;;;;;;14.74;70.57;100116.50;5024857;28;20786;-65
2023/08/09 04:29:07;;;;;;;2.40;1.85;;;;;;;14.67;70.53;100116.72;5029195;28;20215;-66
2023/08/09 04:31:35;;;;;;;2.72;1.80;;;;;;;14.65;71.34;100119.34;5028260;28;20249;-65
2023/08/09 04:34:03;;;;;;;2.13;1.92;;;;;;;14.62;71.40;100124.63;5025741;28;20242;-65
2023/08/09 04:36:32;;;;;;;3.40;2.00;;;;;;;14.55;71.05;100111.88;5021861;28;20213;-67
2023/08/09 04:39:00;;;;;;;3.17;2.00;;;;;;;14.57;71.47;100120.44;5027927;28;20199;-67
2023/08/09 04:41:28;;;;;;;3.38;1.77;;;;;;;14.57;71.57;100121.28;5027273;28;20206;-65
2023/08/09 04:43:56;;;;;;;2.58;2.03;;;;;;;14.63;71.45;100123.72;5029532;28;20213;-65
2023/08/09 04:46:24;;;;;;;2.10;1.60;;;;;;;14.73;71.09;100119.16;5029982;28;20207;-66
2023/08/09 04:48:52;;;;;;;3.30;2.00;;;;;;;14.81;70.71;100119.78;5030590;28;20257;-65
2023/08/09 04:51:20;;;;;;;3.70;2.00;;;;;;;14.91;70.71;100130.75;5025402;28;20294;-66
2023/08/09 04:53:49;;;;;;;2.17;1.83;;;;;;;15.03;69.95;100130.41;5027636;28;20230;-67
2023/08/09 04:56:17;;;;;;;2.35;1.92;;;;;;;15.10;69.44;100129.34;5028513;28;20658;-65
2023/08/09 04:58:46;;;;;;;1.90;1.70;;;;;;;15.21;69.48;100131.63;5018596;28;20234;-68
2023/08/09 05:01:14;;;;;;;1.73;1.63;;;;;;;15.30;68.57;100138.28;5022013;28;20212;-67
2023/08/09 05:03:42;;;;;;;7.00;2.47;;;;;;;15.38;68.34;100142.34;5024608;28;20207;-66
2023/08/09 05:06:10;;;;;;;2.38;2.03;;;;;;;15.42;68.23;100146.56;5028919;28;20657;-67
2023/08/09 05:08:38;;;;;;;2.20;1.80;;;;;;;15.53;68.09;100155.78;5019648;28;20707;-67
2023/08/09 05:11:08;;;;;;;2.97;1.98;;;;;;;15.57;67.31;100147.00;5032648;28;20237;-66
2023/08/09 05:13:36;;;;;;;3.95;1.90;;;;;;;15.61;67.14;100125.22;5031276;28;20669;-66
2023/08/09 05:16:04;;;;;;;3.05;1.80;;;;;;;15.80;67.18;100121.19;5028159;28;20216;-68
2023/08/09 05:18:32;;;;;;;3.60;2.00;;;;;;;15.98;66.17;100126.69;5028650;28;20207;-66
2023/08/09 05:21:02;;;;;;;3.03;1.75;;;;;;;16.13;65.27;100121.00;5029383;28;20217;-67
2023/08/09 05:23:30;;;;;;;3.05;2.00;;;;;;;16.34;64.99;100115.06;5027971;28;20210;-65
2023/08/09 05:25:58;;;;;;;2.92;1.52;;;;;;;16.59;63.61;100135.03;5029749;28;20638;-68
2023/08/09 05:28:27;;;;;;;3.05;1.83;;;;;;;16.63;62.54;100131.41;5030628;28;20245;-66
2023/08/09 05:30:55;;;;;;;2.20;1.58;;;;;;;16.63;62.14;100131.41;5027573;28;20751;-66
2023/08/09 05:33:24;;;;;;;3.90;1.50;;;;;;;16.68;62.12;100134.72;5031724;28;20213;-65
2023/08/09 05:35:52;;;;;;;2.40;1.50;;;;;;;16.87;61.83;100124.53;5028283;28;20211;-67
2023/08/09 05:38:21;;;;;;;1.40;1.30;;;;;;;17.00;60.74;100123.16;5033290;28;20195;-66
2023/08/09 05:40:49;;;;;;;1.48;1.35;;;;;;;17.09;60.42;100124.59;5033034;28;20203;-65
2023/08/09 05:43:17;;;;;;;5.40;1.58;;;;;;;17.22;60.02;100123.22;5028381;28;20574;-65
2023/08/09 05:45:48;;;;;;;3.53;1.50;;;;;;;17.35;58.95;100121.84;5031660;28;20217;-64
2023/08/09 05:48:16;;;;;;;3.75;1.88;;;;;;;17.51;58.59;100118.66;5032845;28;20644;-68
2023/08/09 05:50:44;;;;;;;3.28;1.73;;;;;;;17.70;57.76;100114.41;5028610;28;20202;-64
2023/08/09 05:53:12;;;;;;;1.67;1.58;;;;;;;18.02;57.67;100122.72;5028434;28;20218;-62
2023/08/09 05:55:41;;;;;;;3.30;1.67;;;;;;;18.34;55.81;100119.63;5033457;28;20284;-69
2023/08/09 05:58:09;;;;;;;4.05;1.70;;;;;;;18.76;54.99;100131.75;5026317;28;20235;-62
2023/08/09 06:00:37;;;;;;;3.72;1.25;;;;;;;19.19;53.46;100135.06;5033212;28;20653;-65
2023/08/09 06:03:07;;;;;;;2.75;1.27;;;;;;;19.81;51.80;100132.22;5028875;28;20741;-58
2023/08/09 06:05:36;;;;;;;2.00;1.50;;;;;;;21.90;48.18;100123.81;5027216;28;20282;-65
2023/08/09 06:08:04;;;;;;;4.18;1.40;;;;;;;23.99;42.34;100130.31;5032847;28;20230;-67
2023/08/09 06:10:32;;;;;;;2.85;1.63;;;;;;;25.80;35.74;100133.59;5032844;28;20284;-65
2023/08/09 06:13:00;;;;;;;2.53;1.40;;;;;;;26.40;35.35;100119.41;5034283;28;20199;-65
2023/08/09 06:15:28;;;;;;;3.65;1.70;;;;;;;27.44;33.17;100124.50;5033994;28;20233;-65
2023/08/09 06:17:56;;;;;;;1.80;1.40;;;;;;;28.67;31.23;100122.25;5030473;28;20214;-66
2023/08/09 06:20:27;;;;;;;3.50;1.20;;;;;;;29.40;28.74;100124.78;5031382;28;20203;-64
2023/08/09 06:22:56;;;;;;;2.00;1.10;;;;;;;29.86;27.67;100124.13;5031326;28;20659;-65
2023/08/09 06:25:24;;;;;;;2.63;1.00;;;;;;;30.35;27.30;100126.81;5032713;28;20585;-64
2023/08/09 06:27:54;;;;;;;5.20;1.05;;;;;;;31.31;26.53;100114.16;5032660;28;20293;-67
2023/08/09 06:30:22;;;;;;;2.80;1.17;;;;;;;32.28;25.55;100105.38;5033723;28;20609;-65
2023/08/09 06:32:50;;;;;;;3.10;1.48;;;;;;;33.11;23.64;100117.19;5031949;28;20205;-63
2023/08/09 06:35:18;;;;;;;1.40;1.10;;;;;;;33.90;23.25;100112.34;5033624;28;20210;-64
2023/08/09 06:37:51;;;;;;;1.80;1.05;;;;;;;34.40;21.68;100118.53;5033159;28;20202;-65
2023/08/09 06:40:25;;;;;;;2.15;0.90;;;;;;;35.07;21.36;100117.19;5027120;28;20674;-66
2023/08/09 06:42:53;;;;;;;3.85;1.20;;;;;;;35.74;20.55;100113.13;5030537;28;20203;-67
2023/08/09 06:45:21;;;;;;;2.13;0.90;;;;;;;36.23;19.58;100116.25;5027234;28;20245;-67
2023/08/09 06:47:49;;;;;;;2.60;1.00;;;;;;;36.44;18.01;100118.19;5023698;28;20207;-64
2023/08/09 06:50:19;;;;;;;1.05;0.90;;;;;;;36.36;18.81;100112.91;5031539;28;20214;-63
2023/08/09 06:52:48;;;;;;;3.55;0.80;;;;;;;36.39;18.47;100117.91;5033218;28;20286;-65
2023/08/09 06:55:16;;;;;;;2.90;1.20;;;;;;;36.99;18.53;100119.63;5033090;28;20206;-66
2023/08/09 06:57:44;;;;;;;2.50;0.88;;;;;;;37.30;18.19;100110.47;5032455;28;20504;-63
2023/08/09 07:00:16;;;;;;;1.60;0.80;;;;;;;37.07;17.67;100117.84;5031035;28;20226;-66
2023/08/09 07:02:46;;;;;;;1.75;0.90;;;;;;;36.60;17.54;100119.06;5026619;28;20202;-64
2023/08/09 07:05:18;;;;;;;4.25;0.85;;;;;;;36.23;18.49;100124.28;5025490;28;20206;-66
2023/08/09 07:07:51;;;;;;;2.08;1.00;;;;;;;36.45;18.58;100125.22;5026692;28;20302;-65
2023/08/09 07:10:20;;;;;;;3.75;1.10;;;;;;;36.42;17.49;100125.63;5028884;28;20218;-63
2023/08/09 07:12:48;;;;;;;1.95;0.77;;;;;;;36.19;18.12;100127.50;5032500;28;20210;-67
2023/08/09 07:15:16;;;;;;;2.40;0.80;;;;;;;36.45;18.71;100124.38;5029694;28;20199;-66
2023/08/09 07:17:44;;;;;;;1.77;1.10;;;;;;;36.10;18.00;100133.97;5026273;28;20222;-65
2023/08/09 07:20:14;;;;;;;1.10;0.90;;;;;;;34.47;19.75;100124.88;5027631;28;20561;-70
2023/08/09 07:22:44;;;;;;;2.70;1.00;;;;;;;34.87;19.72;100134.63;5030811;28;20234;-67
2023/08/09 07:25:14;;;;;;;1.17;1.13;;;;;;;32.63;21.69;100123.97;5032321;28;20653;-63
2023/08/09 07:27:43;;;;;;;1.30;1.20;;;;;;;32.59;22.56;100130.63;5024452;28;20206;-65
2023/08/09 07:30:13;;;;;;;1.77;1.00;;;;;;;33.69;21.61;100128.03;5027014;28;20245;-67
2023/08/09 07:32:41;;;;;;;1.63;0.93;;;;;;;34.29;19.89;100127.75;5025483;28;20226;-68
2023/08/09 07:35:10;;;;;;;3.42;1.42;;;;;;;33.37;22.67;100132.31;5026515;28;20219;-63
2023/08/09 07:37:42;;;;;;;1.92;0.98;;;;;;;33.94;21.36;100134.25;5028717;28;20209;-70
2023/08/09 07:40:13;;;;;;;1.52;1.20;;;;;;;34.57;19.76;100137.06;5028069;28;20210;-69
2023/08/09 07:42:43;;;;;;;0.90;0.88;;;;;;;34.44;20.14;100136.75;5029354;28;20647;-65
2023/08/09 07:45:12;;;;;;;1.48;1.13;;;;;;;34.82;19.92;100127.13;5027492;28;20337;-63
2023/08/09 07:47:41;;;;;;;3.03;0.98;;;;;;;35.59;18.99;100128.31;5031349;28;20210;-64
2023/08/09 07:50:10;;;;;;;1.67;1.10;;;;;;;35.61;18.89;100128.94;5031773;28;20647;-64
2023/08/09 07:52:38;;;;;;;1.77;0.80;;;;;;;36.22;18.46;100137.88;5030646;28;20577;-60
2023/08/09 07:55:08;;;;;;;1.50;1.13;;;;;;;34.02;19.56;100135.09;5026707;28;20234;-62
2023/08/09 07:57:36;;;;;;;1.00;0.85;;;;;;;32.93;21.64;100140.47;5029884;28;20211;-66
2023/08/09 08:00:11;;;;;;;1.25;0.90;;;;;;;33.49;21.22;100136.38;5025110;28;20210;-64
2023/08/09 08:02:43;;;;;;;1.70;1.00;;;;;;;32.96;20.77;100137.50;5031096;28;20202;-62
2023/08/09 08:05:15;;;;;;;1.20;1.10;;;;;;;31.85;22.82;100142.50;5025003;28;20230;-64
2023/08/09 08:07:44;;;;;;;4.25;0.90;;;;;;;32.10;22.47;100134.72;5024188;28;20195;-62
2023/08/09 08:10:14;;;;;;;1.80;0.90;;;;;;;33.27;21.89;100131.59;5029881;28;20696;-62
2023/08/09 08:12:43;;;;;;;1.95;1.17;;;;;;;34.90;19.81;100139.66;5031515;28;20218;-62
2023/08/09 08:15:13;;;;;;;1.33;0.80;;;;;;;35.29;18.39;100136.16;5030593;28;20245;-64
2023/08/09 08:17:42;;;;;;;1.50;1.10;;;;;;;33.32;20.44;100137.28;5030667;28;20290;-61
2023/08/09 08:20:15;;;;;;;1.38;1.00;;;;;;;31.52;22.98;100146.69;5031324;28;20795;-61
2023/08/09 08:22:43;;;;;;;1.48;0.90;;;;;;;30.48;25.03;100144.09;5026159;28;20660;-65
2023/08/09 08:25:12;;;;;;;2.22;0.90;;;;;;;31.02;24.34;100147.06;5027858;28;20210;-64
2023/08/09 08:27:45;;;;;;;2.08;0.93;;;;;;;30.58;24.44;100149.41;5027529;28;20658;-61
2023/08/09 08:30:16;;;;;;;3.25;1.20;;;;;;;30.65;24.44;100150.50;5028115;28;20305;-63
2023/08/09 08:32:45;;;;;;;1.92;0.95;;;;;;;29.93;24.17;100151.00;5027041;28;20201;-63
2023/08/09 08:35:14;;;;;;;1.73;0.90;;;;;;;29.09;25.97;100148.72;5030680;28;20641;-61
2023/08/09 08:37:43;;;;;;;2.28;1.08;;;;;;;28.04;27.43;100161.16;5027688;28;20691;-64
2023/08/09 08:40:17;;;;;;;1.45;0.98;;;;;;;27.31;28.27;100152.88;5030633;28;20561;-61
2023/08/09 08:42:47;;;;;;;2.65;1.08;;;;;;;26.22;30.46;100163.06;5029556;28;20652;-61
2023/08/09 08:45:16;;;;;;;0.90;0.90;;;;;;;25.47;31.94;100172.00;5030767;28;20653;-62
2023/08/09 08:47:46;;;;;;;1.02;0.98;;;;;;;25.00;33.28;100176.19;5031501;28;20253;-61
2023/08/09 08:50:15;;;;;;;2.50;1.20;;;;;;;24.54;33.63;100165.31;5028452;28;20261;-60
2023/08/09 08:52:45;;;;;;;1.30;1.20;;;;;;;24.28;34.49;100161.78;5030892;28;20206;-61
2023/08/09 08:55:13;;;;;;;2.15;1.30;;;;;;;24.14;35.13;100161.84;5026306;28;20574;-60
2023/08/09 08:57:43;;;;;;;1.65;1.00;;;;;;;23.85;36.05;100169.84;5027089;28;20669;-63
2023/08/09 09:00:15;;;;;;;1.77;1.20;;;;;;;23.60;36.62;100165.28;5029352;28;20199;-61
2023/08/09 09:02:55;;;;;;;2.05;1.40;;;;;;;23.37;36.85;100161.47;5027136;28;20202;-61
2023/08/09 09:05:24;;;;;;;2.00;1.20;;;;;;;23.35;37.68;100173.91;5026141;28;20202;-62
2023/08/09 09:07:56;;;;;;;1.35;1.15;;;;;;;23.29;37.24;100169.84;5023177;28;20865;-62
2023/08/09 09:10:25;;;;;;;5.10;1.52;;;;;;;23.13;37.79;100166.50;5015773;28;20341;-68
2023/08/09 09:12:55;;;;;;;4.47;1.42;;;;;;;23.02;38.24;100168.94;5029585;28;20274;-63
2023/08/09 09:15:25;;;;;;;3.28;1.38;;;;;;;22.87;38.37;100174.16;5030866;28;20206;-63
2023/08/09 09:17:55;;;;;;;1.50;1.20;;;;;;;22.58;38.49;100173.28;5031985;28;20198;-61
2023/08/09 09:20:29;;;;;;;2.97;1.17;;;;;;;22.25;38.68;100173.47;5034777;28;20205;-61
2023/08/09 09:22:59;;;;;;;2.55;1.40;;;;;;;22.40;39.35;100161.22;5034090;28;20225;-61
2023/08/09 09:25:27;;;;;;;6.25;1.60;;;;;;;22.94;38.90;100172.03;5029417;28;20210;-61
2023/08/09 09:27:57;;;;;;;3.45;1.30;;;;;;;23.11;37.79;100169.19;5033229;28;20312;-62
2023/08/09 09:30:29;;;;;;;4.88;1.38;;;;;;;23.05;37.40;100172.22;5033333;28;20218;-62
2023/08/09 09:33:00;;;;;;;1.35;1.10;;;;;;;22.81;37.45;100173.69;5033223;28;20210;-63
2023/08/09 09:35:33;;;;;;;1.50;1.20;;;;;;;22.72;37.77;100177.72;5034046;28;20210;-62
2023/08/09 09:38:02;;;;;;;1.35;1.17;;;;;;;22.63;38.24;100178.25;5033713;28;20252;-63
2023/08/09 09:40:31;;;;;;;1.75;1.20;;;;;;;22.47;38.78;100165.19;5023661;28;20238;-62
2023/08/09 09:43:05;;;;;;;1.55;1.20;;;;;;;22.34;38.81;100177.34;5034565;28;20202;-63
2023/08/09 09:45:34;;;;;;;2.22;1.40;;;;;;;22.12;39.06;100169.81;5033901;28;20658;-63
2023/08/09 09:48:04;;;;;;;1.88;1.23;;;;;;;21.91;39.21;100179.78;5033714;28;20207;-64
2023/08/09 09:50:33;;;;;;;2.83;1.30;;;;;;;21.55;39.98;100186.13;5030990;28;20601;-65
2023/08/09 09:53:02;;;;;;;5.13;1.60;;;;;;;21.11;40.96;100186.72;5029219;28;20222;-64
2023/08/09 09:55:31;;;;;;;3.20;1.48;;;;;;;20.91;41.55;100179.03;5032792;28;20203;-59
2023/08/09 09:57:59;;;;;;;3.65;1.20;;;;;;;20.84;42.11;100170.69;5032595;28;20302;-60
2023/08/09 10:00:28;;;;;;;1.55;1.33;;;;;;;21.06;41.63;100164.28;5037856;28;20218;-61
2023/08/09 10:03:04;;;;;;;1.42;1.30;;;;;;;21.21;41.69;100166.97;5033743;28;20198;-61
2023/08/09 10:05:38;;;;;;;1.20;1.10;;;;;;;21.32;41.21;100162.88;5030218;28;20302;-64
2023/08/09 10:08:08;;;;;;;2.17;1.17;;;;;;;21.37;41.55;100161.75;5027551;28;20199;-67
2023/08/09 10:10:44;;;;;;;1.40;1.30;;;;;;;21.41;41.38;100157.19;5030658;28;20260;-67
2023/08/09 10:13:15;;;;;;;3.10;1.58;;;;;;;21.70;40.97;100160.84;5031337;28;20720;-65
2023/08/09 10:15:48;;;;;;;1.98;1.35;;;;;;;21.81;40.63;100160.22;5027779;28;20599;-65
2023/08/09 10:18:19;;;;;;;1.95;1.30;;;;;;;21.65;40.38;100161.09;5030887;28;20290;-65
2023/08/09 10:20:52;;;;;;;2.90;1.30;;;;;;;21.58;40.93;100146.63;5033361;28;20657;-66
2023/08/09 10:23:22;;;;;;;2.92;1.25;;;;;;;21.73;41.01;100139.69;5030558;28;20653;-66
2023/08/09 10:25:50;;;;;;;2.67;1.70;;;;;;;21.92;40.69;100142.94;5031230;28;20237;-65
2023/08/09 10:28:19;;;;;;;3.33;1.60;;;;;;;22.81;39.44;100140.38;5032417;28;20286;-64
2023/08/09 10:30:51;;;;;;;4.13;1.52;;;;;;;24.53;36.22;100129.38;5031779;28;20211;-66
2023/08/09 10:33:20;;;;;;;1.38;1.15;;;;;;;26.23;33.13;100125.13;5032561;28;20548;-69
2023/08/09 10:35:54;;;;;;;2.85;1.25;;;;;;;27.10;30.43;100128.09;5030633;28;20198;-65
2023/08/09 10:38:39;;;;;;;2.90;1.00;;;;;;;26.98;30.11;100124.63;5030439;28;20225;-66
2023/08/09 10:41:15;;;;;;;2.55;1.42;;;;;;;27.12;29.54;100127.06;5025270;28;20291;-65
2023/08/09 10:43:43;;;;;;;1.67;0.90;;;;;;;27.62;28.92;100126.63;5031264;28;20285;-64
2023/08/09 10:46:19;;;;;;;2.85;1.30;;;;;;;27.38;28.82;100132.91;5026865;28;20203;-64
2023/08/09 10:48:51;;;;;;;3.53;1.23;;;;;;;26.25;29.89;100134.63;5028610;28;20202;-64
2023/08/09 10:51:23;;;;;;;1.77;1.20;;;;;;;25.14;31.75;100124.28;5029236;28;20226;-66
2023/08/09 10:53:56;;;;;;;3.00;1.30;;;;;;;25.27;32.40;100120.69;5029953;28;20210;-65
2023/08/09 10:56:32;;;;;;;2.78;1.45;;;;;;;26.07;31.78;100129.84;5025915;28;20195;-65
2023/08/09 10:59:05;;;;;;;2.03;1.50;;;;;;;26.24;30.74;100119.72;5028946;28;20746;-64
2023/08/09 11:01:34;;;;;;;1.13;1.02;;;;;;;25.85;31.33;100128.84;5026360;28;20285;-65
2023/08/09 11:04:06;;;;;;;1.88;1.27;;;;;;;24.99;32.38;100116.47;5031614;28;20236;-65
2023/08/09 11:06:40;;;;;;;4.20;1.38;;;;;;;24.22;33.47;100130.56;5029819;28;20660;-64
2023/08/09 11:09:09;;;;;;;2.20;1.23;;;;;;;23.61;34.83;100123.09;5023859;28;20203;-70
2023/08/09 11:11:40;;;;;;;2.95;1.40;;;;;;;23.26;35.97;100129.75;5031651;28;20218;-70
2023/08/09 11:14:09;;;;;;;1.88;1.40;;;;;;;22.92;36.45;100126.59;5027379;28;20272;-68
2023/08/09 11:16:37;;;;;;;3.15;1.15;;;;;;;22.51;36.44;100127.31;5023386;28;20222;-69
2023/08/09 11:19:08;;;;;;;4.63;1.50;;;;;;;22.11;37.56;100124.38;5023181;28;20289;-70
2023/08/09 11:21:57;;;;;;;2.60;1.08;;;;;;;21.80;38.39;100124.41;5025140;28;20241;-70
2023/08/09 11:24:25;;;;;;;1.20;1.10;;;;;;;21.64;38.35;100122.66;5022034;28;20219;-69
2023/08/09 11:26:55;;;;;;;1.98;1.45;;;;;;;21.58;38.78;100120.41;5025003;28;20493;-71
2023/08/09 11:29:25;;;;;;;1.95;1.20;;;;;;;21.59;38.77;100119.47;5028829;28;20207;-69
2023/08/09 11:31:55;;;;;;;1.85;1.20;;;;;;;21.62;38.73;100114.06;5025902;28;20221;-69
2023/08/09 11:34:24;;;;;;;1.80;1.15;;;;;;;21.62;38.25;100124.56;5024579;28;20728;-71